createdAt,value
2023-04-29T00:00:46.000Z,-53
2023-04-29T00:01:46.000Z,-55
2023-04-29T00:02:46.000Z,-47
2023-04-29T00:03:46.000Z,-54
2023-04-29T00:04:47.000Z,-48
2023-04-29T00:05:47.000Z,-48
2023-04-29T00:06:47.000Z,-55
2023-04-29T00:07:47.000Z,-56
2023-04-29T00:08:47.000Z,-47
2023-04-29T00:09:47.000Z,-56
2023-04-29T00:10:47.000Z,-48
2023-04-29T00:11:47.000Z,-47
2023-04-29T00:12:47.000Z,-56
2023-04-29T00:13:47.000Z,-55
2023-04-29T00:14:47.000Z,-47
2023-04-29T00:15:47.000Z,-47
2023-04-29T00:16:48.000Z,-48
2023-04-29T00:17:48.000Z,-55
2023-04-29T00:18:48.000Z,-47
2023-04-29T00:19:48.000Z,-48
2023-04-29T00:20:48.000Z,-46
2023-04-29T00:21:48.000Z,-47
2023-04-29T00:22:48.000Z,-48
2023-04-29T00:23:48.000Z,-48
2023-04-29T00:24:48.000Z,-48
2023-04-29T00:25:48.000Z,-54
2023-04-29T00:26:48.000Z,-47
2023-04-29T00:27:48.000Z,-48
2023-04-29T00:28:49.000Z,-45
2023-04-29T00:29:49.000Z,-53
2023-04-29T00:30:49.000Z,-46
2023-04-29T00:31:49.000Z,-53
2023-04-29T00:32:49.000Z,-46
2023-04-29T00:33:49.000Z,-45
2023-04-29T00:34:49.000Z,-51
2023-04-29T00:35:49.000Z,-45
2023-04-29T00:36:49.000Z,-46
2023-04-29T00:37:49.000Z,-45
2023-04-29T00:38:49.000Z,-52
2023-04-29T00:39:49.000Z,-51
2023-04-29T00:40:50.000Z,-51
2023-04-29T00:41:50.000Z,-45
2023-04-29T00:42:50.000Z,-43
2023-04-29T00:43:50.000Z,-44
2023-04-29T00:44:50.000Z,-45
2023-04-29T00:45:50.000Z,-43
2023-04-29T00:46:50.000Z,-43
2023-04-29T00:47:50.000Z,-44
2023-04-29T00:48:50.000Z,-45
2023-04-29T00:49:50.000Z,-45
2023-04-29T00:50:50.000Z,-45
2023-04-29T00:51:50.000Z,-45
2023-04-29T00:52:50.000Z,-45
2023-04-29T00:53:51.000Z,-45
2023-04-29T00:54:51.000Z,-46
2023-04-29T00:55:51.000Z,-46
2023-04-29T00:56:51.000Z,-51
2023-04-29T00:57:51.000Z,-52
2023-04-29T00:58:51.000Z,-45
2023-04-29T00:59:51.000Z,-52
2023-04-29T01:00:51.000Z,-45
2023-04-29T01:01:51.000Z,-45
2023-04-29T01:02:51.000Z,-45
2023-04-29T01:03:51.000Z,-45
2023-04-29T01:04:51.000Z,-45
2023-04-29T01:05:52.000Z,-46
2023-04-29T01:06:52.000Z,-46
2023-04-29T01:07:52.000Z,-46
2023-04-29T01:08:52.000Z,-46
2023-04-29T01:09:52.000Z,-52
2023-04-29T01:10:52.000Z,-51
2023-04-29T01:11:52.000Z,-51
2023-04-29T01:12:52.000Z,-45
2023-04-29T01:13:52.000Z,-45
2023-04-29T01:14:52.000Z,-45
2023-04-29T01:15:52.000Z,-45
2023-04-29T01:16:52.000Z,-44
2023-04-29T01:17:52.000Z,-51
2023-04-29T01:18:53.000Z,-45
2023-04-29T01:19:53.000Z,-45
2023-04-29T01:20:53.000Z,-45
2023-04-29T01:21:53.000Z,-46
2023-04-29T01:22:53.000Z,-45
2023-04-29T01:23:53.000Z,-45
2023-04-29T01:24:53.000Z,-45
2023-04-29T01:25:53.000Z,-51
2023-04-29T01:26:53.000Z,-45
2023-04-29T01:27:53.000Z,-51
2023-04-29T01:28:53.000Z,-52
2023-04-29T01:29:53.000Z,-45
2023-04-29T01:30:54.000Z,-44
2023-04-29T01:31:54.000Z,-45
2023-04-29T01:32:54.000Z,-45
2023-04-29T01:33:54.000Z,-46
2023-04-29T01:34:54.000Z,-46
2023-04-29T01:35:54.000Z,-51
2023-04-29T01:36:54.000Z,-45
2023-04-29T01:37:54.000Z,-46
2023-04-29T01:38:54.000Z,-46
2023-04-29T01:39:54.000Z,-46
2023-04-29T01:40:54.000Z,-46
2023-04-29T01:41:54.000Z,-46
2023-04-29T01:42:55.000Z,-52
2023-04-29T01:43:55.000Z,-45
2023-04-29T01:44:55.000Z,-46
2023-04-29T01:45:55.000Z,-45
2023-04-29T01:46:55.000Z,-51
2023-04-29T01:47:55.000Z,-45
2023-04-29T01:48:55.000Z,-46
2023-04-29T01:49:55.000Z,-47
2023-04-29T01:50:55.000Z,-47
2023-04-29T01:51:55.000Z,-51
2023-04-29T01:52:55.000Z,-45
2023-04-29T01:53:55.000Z,-46
2023-04-29T01:54:55.000Z,-45
2023-04-29T01:55:56.000Z,-51
2023-04-29T01:56:56.000Z,-51
2023-04-29T01:57:56.000Z,-45
2023-04-29T01:58:56.000Z,-47
2023-04-29T01:59:56.000Z,-46
2023-04-29T02:00:56.000Z,-47
2023-04-29T02:01:56.000Z,-47
2023-04-29T02:02:56.000Z,-47
2023-04-29T02:03:56.000Z,-46
2023-04-29T02:04:56.000Z,-47
2023-04-29T02:05:56.000Z,-47
2023-04-29T02:06:56.000Z,-47
2023-04-29T02:07:57.000Z,-47
2023-04-29T02:08:57.000Z,-47
2023-04-29T02:09:57.000Z,-47
2023-04-29T02:10:57.000Z,-46
2023-04-29T02:11:57.000Z,-51
2023-04-29T02:12:57.000Z,-47
2023-04-29T02:13:57.000Z,-47
2023-04-29T02:14:57.000Z,-51
2023-04-29T02:15:57.000Z,-47
2023-04-29T02:16:57.000Z,-47
2023-04-29T02:17:57.000Z,-47
2023-04-29T02:18:57.000Z,-47
2023-04-29T02:19:58.000Z,-47
2023-04-29T02:20:58.000Z,-47
2023-04-29T02:21:58.000Z,-51
2023-04-29T02:22:58.000Z,-47
2023-04-29T02:23:58.000Z,-51
2023-04-29T02:24:58.000Z,-51
2023-04-29T02:25:58.000Z,-51
2023-04-29T02:26:58.000Z,-53
2023-04-29T02:27:58.000Z,-47
2023-04-29T02:28:58.000Z,-47
2023-04-29T02:29:58.000Z,-47
2023-04-29T02:30:58.000Z,-50
2023-04-29T02:31:58.000Z,-52
2023-04-29T02:32:58.000Z,-47
2023-04-29T02:33:59.000Z,-47
2023-04-29T02:34:59.000Z,-48
2023-04-29T02:35:59.000Z,-52
2023-04-29T02:36:59.000Z,-53
2023-04-29T02:37:59.000Z,-47
2023-04-29T02:38:59.000Z,-53
2023-04-29T02:39:59.000Z,-47
2023-04-29T02:40:59.000Z,-48
2023-04-29T02:41:59.000Z,-47
2023-04-29T02:42:59.000Z,-47
2023-04-29T02:43:59.000Z,-48
2023-04-29T02:45:00.000Z,-51
2023-04-29T02:46:00.000Z,-53
2023-04-29T02:47:00.000Z,-47
2023-04-29T02:48:00.000Z,-53
2023-04-29T02:49:00.000Z,-53
2023-04-29T02:50:00.000Z,-47
2023-04-29T02:51:00.000Z,-52
2023-04-29T02:52:00.000Z,-52
2023-04-29T02:53:00.000Z,-53
2023-04-29T02:54:00.000Z,-54
2023-04-29T02:55:00.000Z,-53
2023-04-29T02:56:00.000Z,-48
2023-04-29T02:57:01.000Z,-53
2023-04-29T02:58:01.000Z,-54
2023-04-29T02:59:01.000Z,-49
2023-04-29T03:00:01.000Z,-54
2023-04-29T03:01:01.000Z,-53
2023-04-29T03:02:01.000Z,-49
2023-04-29T03:03:01.000Z,-48
2023-04-29T03:04:01.000Z,-49
2023-04-29T03:05:01.000Z,-53
2023-04-29T03:06:01.000Z,-48
2023-04-29T03:07:01.000Z,-49
2023-04-29T03:08:02.000Z,-50
2023-04-29T03:09:02.000Z,-48
2023-04-29T03:10:02.000Z,-49
2023-04-29T03:11:02.000Z,-53
2023-04-29T03:12:02.000Z,-49
2023-04-29T03:13:02.000Z,-49
2023-04-29T03:14:02.000Z,-48
2023-04-29T03:15:02.000Z,-48
2023-04-29T03:16:02.000Z,-49
2023-04-29T03:17:02.000Z,-53
2023-04-29T03:18:02.000Z,-48
2023-04-29T03:19:02.000Z,-54
2023-04-29T03:20:02.000Z,-55
2023-04-29T03:21:03.000Z,-49
2023-04-29T03:22:03.000Z,-49
2023-04-29T03:23:03.000Z,-50
2023-04-29T03:24:03.000Z,-50
2023-04-29T03:25:03.000Z,-49
2023-04-29T03:26:03.000Z,-49
2023-04-29T03:27:03.000Z,-49
2023-04-29T03:28:03.000Z,-49
2023-04-29T03:29:03.000Z,-48
2023-04-29T03:30:03.000Z,-53
2023-04-29T03:31:03.000Z,-54
2023-04-29T03:32:03.000Z,-49
2023-04-29T03:33:04.000Z,-53
2023-04-29T03:34:04.000Z,-49
2023-04-29T03:35:04.000Z,-53
2023-04-29T03:36:04.000Z,-49
2023-04-29T03:37:04.000Z,-49
2023-04-29T03:38:04.000Z,-54
2023-04-29T03:39:04.000Z,-53
2023-04-29T03:40:04.000Z,-49
2023-04-29T03:41:04.000Z,-50
2023-04-29T03:42:04.000Z,-50
2023-04-29T03:43:04.000Z,-54
2023-04-29T03:44:04.000Z,-52
2023-04-29T03:45:05.000Z,-53
2023-04-29T03:46:05.000Z,-53
2023-04-29T03:47:05.000Z,-49
2023-04-29T03:48:05.000Z,-50
2023-04-29T03:49:05.000Z,-50
2023-04-29T03:50:05.000Z,-53
2023-04-29T03:51:05.000Z,-49
2023-04-29T03:52:05.000Z,-49
2023-04-29T03:53:05.000Z,-54
2023-04-29T03:54:05.000Z,-53
2023-04-29T03:55:05.000Z,-53
2023-04-29T03:56:05.000Z,-50
2023-04-29T03:57:06.000Z,-50
2023-04-29T03:58:06.000Z,-49
2023-04-29T03:59:06.000Z,-53
2023-04-29T04:00:06.000Z,-54
2023-04-29T04:01:06.000Z,-54
2023-04-29T04:02:06.000Z,-53
2023-04-29T04:03:06.000Z,-49
2023-04-29T04:04:06.000Z,-53
2023-04-29T04:05:06.000Z,-49
2023-04-29T04:06:06.000Z,-49
2023-04-29T04:07:06.000Z,-49
2023-04-29T04:08:06.000Z,-49
2023-04-29T04:09:07.000Z,-50
2023-04-29T04:10:07.000Z,-50
2023-04-29T04:11:07.000Z,-50
2023-04-29T04:12:07.000Z,-51
2023-04-29T04:13:07.000Z,-50
2023-04-29T04:14:07.000Z,-54
2023-04-29T04:15:07.000Z,-51
2023-04-29T04:16:07.000Z,-51
2023-04-29T04:17:07.000Z,-54
2023-04-29T04:18:07.000Z,-50
2023-04-29T04:19:07.000Z,-53
2023-04-29T04:20:07.000Z,-51
2023-04-29T04:21:07.000Z,-51
2023-04-29T04:22:08.000Z,-51
2023-04-29T04:23:08.000Z,-50
2023-04-29T04:24:08.000Z,-51
2023-04-29T04:25:08.000Z,-50
2023-04-29T04:26:08.000Z,-49
2023-04-29T04:27:08.000Z,-51
2023-04-29T04:28:08.000Z,-53
2023-04-29T04:29:08.000Z,-53
2023-04-29T04:30:08.000Z,-51
2023-04-29T04:31:08.000Z,-49
2023-04-29T04:32:08.000Z,-50
2023-04-29T04:33:08.000Z,-50
2023-04-29T04:34:08.000Z,-50
2023-04-29T04:35:08.000Z,-51
2023-04-29T04:36:09.000Z,-51
2023-04-29T04:37:09.000Z,-53
2023-04-29T04:38:09.000Z,-51
2023-04-29T04:39:09.000Z,-49
2023-04-29T04:40:09.000Z,-51
2023-04-29T04:41:09.000Z,-50
2023-04-29T04:42:09.000Z,-49
2023-04-29T04:43:09.000Z,-54
2023-04-29T04:44:09.000Z,-50
2023-04-29T04:45:09.000Z,-54
2023-04-29T04:46:10.000Z,-53
2023-04-29T04:47:10.000Z,-50
2023-04-29T04:48:10.000Z,-51
2023-04-29T04:49:10.000Z,-51
2023-04-29T04:50:10.000Z,-51
2023-04-29T04:51:10.000Z,-50
2023-04-29T04:52:10.000Z,-50
2023-04-29T04:53:10.000Z,-51
2023-04-29T04:54:10.000Z,-51
2023-04-29T04:55:10.000Z,-51
2023-04-29T04:56:10.000Z,-51
2023-04-29T04:57:11.000Z,-51
2023-04-29T04:58:11.000Z,-51
2023-04-29T04:59:11.000Z,-54
2023-04-29T05:00:11.000Z,-51
2023-04-29T05:01:11.000Z,-50
2023-04-29T05:02:11.000Z,-50
2023-04-29T05:03:11.000Z,-53
2023-04-29T05:04:11.000Z,-52
2023-04-29T05:05:11.000Z,-53
2023-04-29T05:06:11.000Z,-50
2023-04-29T05:07:11.000Z,-54
2023-04-29T05:08:11.000Z,-54
2023-04-29T05:09:12.000Z,-50
2023-04-29T05:10:12.000Z,-50
2023-04-29T05:11:12.000Z,-51
2023-04-29T05:12:12.000Z,-54
2023-04-29T05:13:12.000Z,-53
2023-04-29T05:14:12.000Z,-52
2023-04-29T05:15:12.000Z,-53
2023-04-29T05:16:12.000Z,-51
2023-04-29T05:17:12.000Z,-51
2023-04-29T05:18:12.000Z,-51
2023-04-29T05:19:12.000Z,-51
2023-04-29T05:20:12.000Z,-52
2023-04-29T05:21:12.000Z,-51
2023-04-29T05:22:13.000Z,-52
2023-04-29T05:23:13.000Z,-54
2023-04-29T05:24:13.000Z,-51
2023-04-29T05:25:13.000Z,-54
2023-04-29T05:26:13.000Z,-52
2023-04-29T05:27:13.000Z,-54
2023-04-29T05:28:13.000Z,-55
2023-04-29T05:29:13.000Z,-54
2023-04-29T05:30:13.000Z,-52
2023-04-29T05:31:13.000Z,-52
2023-04-29T05:32:13.000Z,-50
2023-04-29T05:33:13.000Z,-51
2023-04-29T05:34:14.000Z,-51
2023-04-29T05:35:14.000Z,-53
2023-04-29T05:36:14.000Z,-50
2023-04-29T05:37:14.000Z,-51
2023-04-29T05:38:14.000Z,-54
2023-04-29T05:39:14.000Z,-51
2023-04-29T05:40:14.000Z,-51
2023-04-29T05:41:14.000Z,-54
2023-04-29T05:42:14.000Z,-51
2023-04-29T05:43:14.000Z,-53
2023-04-29T05:44:14.000Z,-51
2023-04-29T05:45:14.000Z,-51
2023-04-29T05:46:15.000Z,-53
2023-04-29T05:47:15.000Z,-53
2023-04-29T05:48:15.000Z,-53
2023-04-29T05:49:15.000Z,-53
2023-04-29T05:50:15.000Z,-53
2023-04-29T05:51:15.000Z,-53
2023-04-29T05:52:15.000Z,-51
2023-04-29T05:53:15.000Z,-53
2023-04-29T05:54:15.000Z,-55
2023-04-29T05:55:15.000Z,-55
2023-04-29T05:56:15.000Z,-54
2023-04-29T05:57:15.000Z,-54
2023-04-29T05:58:16.000Z,-53
2023-04-29T05:59:16.000Z,-53
2023-04-29T06:00:16.000Z,-52
2023-04-29T06:01:16.000Z,-55
2023-04-29T06:02:16.000Z,-54
2023-04-29T06:03:16.000Z,-51
2023-04-29T06:04:16.000Z,-53
2023-04-29T06:05:16.000Z,-53
2023-04-29T06:06:16.000Z,-52
2023-04-29T06:07:16.000Z,-52
2023-04-29T06:08:16.000Z,-51
2023-04-29T06:09:16.000Z,-51
2023-04-29T06:10:17.000Z,-51
2023-04-29T06:11:17.000Z,-56
2023-04-29T06:12:17.000Z,-55
2023-04-29T06:13:17.000Z,-52
2023-04-29T06:14:17.000Z,-52
2023-04-29T06:15:17.000Z,-54
2023-04-29T06:16:17.000Z,-53
2023-04-29T06:17:17.000Z,-53
2023-04-29T06:18:17.000Z,-53
2023-04-29T06:19:17.000Z,-52
2023-04-29T06:20:17.000Z,-53
2023-04-29T06:21:18.000Z,-53
2023-04-29T06:22:18.000Z,-56
2023-04-29T06:23:18.000Z,-52
2023-04-29T06:24:18.000Z,-53
2023-04-29T06:25:18.000Z,-55
2023-04-29T06:26:18.000Z,-53
2023-04-29T06:27:18.000Z,-56
2023-04-29T06:28:18.000Z,-52
2023-04-29T06:29:18.000Z,-51
2023-04-29T06:30:18.000Z,-53
2023-04-29T06:31:18.000Z,-53
2023-04-29T06:32:18.000Z,-52
2023-04-29T06:33:18.000Z,-53
2023-04-29T06:34:19.000Z,-54
2023-04-29T06:35:19.000Z,-52
2023-04-29T06:36:19.000Z,-53
2023-04-29T06:37:19.000Z,-52
2023-04-29T06:38:19.000Z,-53
2023-04-29T06:39:19.000Z,-54
2023-04-29T06:40:19.000Z,-53
2023-04-29T06:41:19.000Z,-53
2023-04-29T06:42:19.000Z,-55
2023-04-29T06:43:19.000Z,-56
2023-04-29T06:44:19.000Z,-54
2023-04-29T06:45:19.000Z,-54
2023-04-29T06:46:20.000Z,-55
2023-04-29T06:47:20.000Z,-55
2023-04-29T06:48:20.000Z,-55
2023-04-29T06:49:20.000Z,-54
2023-04-29T06:50:20.000Z,-53
2023-04-29T06:51:20.000Z,-53
2023-04-29T06:52:20.000Z,-57
2023-04-29T06:53:20.000Z,-58
2023-04-29T06:54:20.000Z,-59
2023-04-29T06:55:20.000Z,-54
2023-04-29T06:56:20.000Z,-59
2023-04-29T06:57:20.000Z,-59
2023-04-29T06:58:20.000Z,-60
2023-04-29T06:59:21.000Z,-53
2023-04-29T07:00:21.000Z,-53
2023-04-29T07:01:21.000Z,-53
2023-04-29T07:02:21.000Z,-53
2023-04-29T07:03:21.000Z,-60
2023-04-29T07:04:21.000Z,-55
2023-04-29T07:05:21.000Z,-54
2023-04-29T07:06:21.000Z,-54
2023-04-29T07:07:21.000Z,-54
2023-04-29T07:08:21.000Z,-59
2023-04-29T07:09:21.000Z,-57
2023-04-29T07:10:21.000Z,-53
2023-04-29T07:11:22.000Z,-54
2023-04-29T07:12:22.000Z,-60
2023-04-29T07:13:22.000Z,-55
2023-04-29T07:14:22.000Z,-55
2023-04-29T07:15:22.000Z,-55
2023-04-29T07:16:22.000Z,-53
2023-04-29T07:17:22.000Z,-57
2023-04-29T07:18:22.000Z,-55
2023-04-29T07:19:22.000Z,-55
2023-04-29T07:20:22.000Z,-54
2023-04-29T07:21:22.000Z,-55
2023-04-29T07:22:23.000Z,-55
2023-04-29T07:23:23.000Z,-56
2023-04-29T07:24:23.000Z,-54
2023-04-29T07:25:23.000Z,-54
2023-04-29T07:26:23.000Z,-55
2023-04-29T07:27:23.000Z,-55
2023-04-29T07:28:23.000Z,-53
2023-04-29T07:29:23.000Z,-60
2023-04-29T07:30:23.000Z,-59
2023-04-29T07:31:23.000Z,-54
2023-04-29T07:32:23.000Z,-55
2023-04-29T07:33:23.000Z,-54
2023-04-29T07:34:23.000Z,-59
2023-04-29T07:35:24.000Z,-56
2023-04-29T07:36:24.000Z,-54
2023-04-29T07:37:24.000Z,-54
2023-04-29T07:38:24.000Z,-60
2023-04-29T07:39:24.000Z,-55
2023-04-29T07:40:24.000Z,-58
2023-04-29T07:41:24.000Z,-54
2023-04-29T07:42:24.000Z,-56
2023-04-29T07:43:24.000Z,-54
2023-04-29T07:44:24.000Z,-53
2023-04-29T07:45:24.000Z,-53
2023-04-29T07:46:24.000Z,-52
2023-04-29T07:47:25.000Z,-53
2023-04-29T07:48:25.000Z,-53
2023-04-29T07:49:25.000Z,-53
2023-04-29T07:50:25.000Z,-53
2023-04-29T07:51:25.000Z,-53
2023-04-29T07:52:25.000Z,-54
2023-04-29T07:53:25.000Z,-55
2023-04-29T07:54:25.000Z,-55
2023-04-29T07:55:25.000Z,-52
2023-04-29T07:56:25.000Z,-54
2023-04-29T07:57:25.000Z,-56
2023-04-29T07:58:25.000Z,-56
2023-04-29T07:59:25.000Z,-53
2023-04-29T08:00:25.000Z,-57
2023-04-29T08:01:25.000Z,-56
2023-04-29T08:02:26.000Z,-55
2023-04-29T08:03:26.000Z,-51
2023-04-29T08:04:26.000Z,-56
2023-04-29T08:05:26.000Z,-51
2023-04-29T08:06:26.000Z,-52
2023-04-29T08:07:26.000Z,-51
2023-04-29T08:08:26.000Z,-54
2023-04-29T08:09:26.000Z,-52
2023-04-29T08:10:26.000Z,-51
2023-04-29T08:11:26.000Z,-51
2023-04-29T08:12:26.000Z,-53
2023-04-29T08:13:26.000Z,-53
2023-04-29T08:14:26.000Z,-54
2023-04-29T08:15:27.000Z,-51
2023-04-29T08:16:27.000Z,-54
2023-04-29T08:17:27.000Z,-52
2023-04-29T08:18:27.000Z,-51
2023-04-29T08:19:27.000Z,-53
2023-04-29T08:20:27.000Z,-50
2023-04-29T08:21:27.000Z,-51
2023-04-29T08:22:27.000Z,-51
2023-04-29T08:23:27.000Z,-51
2023-04-29T08:24:27.000Z,-51
2023-04-29T08:25:27.000Z,-51
2023-04-29T08:26:27.000Z,-55
2023-04-29T08:27:27.000Z,-51
2023-04-29T08:28:27.000Z,-55
2023-04-29T08:29:28.000Z,-52
2023-04-29T08:30:28.000Z,-54
2023-04-29T08:31:28.000Z,-52
2023-04-29T08:32:28.000Z,-55
2023-04-29T08:33:28.000Z,-54
2023-04-29T08:34:28.000Z,-57
2023-04-29T08:35:28.000Z,-52
2023-04-29T08:36:28.000Z,-54
2023-04-29T08:37:28.000Z,-51
2023-04-29T08:38:28.000Z,-51
2023-04-29T08:39:28.000Z,-59
2023-04-29T08:40:28.000Z,-49
2023-04-29T08:41:28.000Z,-50
2023-04-29T08:42:29.000Z,-56
2023-04-29T08:43:29.000Z,-47
2023-04-29T08:44:29.000Z,-49
2023-04-29T08:45:29.000Z,-47
2023-04-29T08:46:29.000Z,-48
2023-04-29T08:47:29.000Z,-48
2023-04-29T08:48:29.000Z,-50
2023-04-29T08:49:29.000Z,-47
2023-04-29T08:50:29.000Z,-48
2023-04-29T08:51:29.000Z,-47
2023-04-29T08:52:29.000Z,-47
2023-04-29T08:53:29.000Z,-55
2023-04-29T08:54:30.000Z,-54
2023-04-29T08:55:30.000Z,-49
2023-04-29T08:56:30.000Z,-47
2023-04-29T08:57:30.000Z,-49
2023-04-29T08:58:30.000Z,-56
2023-04-29T08:59:30.000Z,-49
2023-04-29T09:00:30.000Z,-48
2023-04-29T09:01:30.000Z,-48
2023-04-29T09:02:30.000Z,-50
2023-04-29T09:03:30.000Z,-53
2023-04-29T09:04:30.000Z,-49
2023-04-29T09:05:30.000Z,-56
2023-04-29T09:06:31.000Z,-48
2023-04-29T09:07:31.000Z,-47
2023-04-29T09:08:31.000Z,-59
2023-04-29T09:09:31.000Z,-57
2023-04-29T09:10:31.000Z,-61
2023-04-29T09:11:31.000Z,-53
2023-04-29T09:12:31.000Z,-49
2023-04-29T09:13:31.000Z,-49
2023-04-29T09:14:31.000Z,-49
2023-04-29T09:15:31.000Z,-55
2023-04-29T09:16:31.000Z,-49
2023-04-29T09:17:31.000Z,-48
2023-04-29T09:18:31.000Z,-49
2023-04-29T09:19:32.000Z,-49
2023-04-29T09:20:32.000Z,-49
2023-04-29T09:21:32.000Z,-53
2023-04-29T09:22:32.000Z,-49
2023-04-29T09:23:32.000Z,-56
2023-04-29T09:24:32.000Z,-54
2023-04-29T09:25:32.000Z,-49
2023-04-29T09:26:32.000Z,-48
2023-04-29T09:27:32.000Z,-49
2023-04-29T09:28:32.000Z,-49
2023-04-29T09:29:32.000Z,-49
2023-04-29T09:30:33.000Z,-48
2023-04-29T09:31:33.000Z,-49
2023-04-29T09:32:33.000Z,-55
2023-04-29T09:33:33.000Z,-49
2023-04-29T09:34:33.000Z,-49
2023-04-29T09:35:33.000Z,-54
2023-04-29T09:36:33.000Z,-49
2023-04-29T09:37:33.000Z,-56
2023-04-29T09:38:33.000Z,-57
2023-04-29T09:39:33.000Z,-51
2023-04-29T09:40:33.000Z,-59
2023-04-29T09:41:34.000Z,-51
2023-04-29T09:42:34.000Z,-49
2023-04-29T09:43:34.000Z,-49
2023-04-29T09:44:34.000Z,-49
2023-04-29T09:45:34.000Z,-49
2023-04-29T09:46:34.000Z,-55
2023-04-29T09:47:34.000Z,-49
2023-04-29T09:48:34.000Z,-49
2023-04-29T09:49:34.000Z,-55
2023-04-29T09:50:34.000Z,-59
2023-04-29T09:51:34.000Z,-50
2023-04-29T09:52:35.000Z,-49
2023-04-29T09:53:35.000Z,-49
2023-04-29T09:54:35.000Z,-51
2023-04-29T09:55:35.000Z,-55
2023-04-29T09:56:35.000Z,-56
2023-04-29T09:57:35.000Z,-50
2023-04-29T09:58:35.000Z,-58
2023-04-29T09:59:35.000Z,-49
2023-04-29T10:00:35.000Z,-50
2023-04-29T10:01:35.000Z,-57
2023-04-29T10:02:35.000Z,-51
2023-04-29T10:03:35.000Z,-49
2023-04-29T10:04:36.000Z,-49
2023-04-29T10:05:36.000Z,-52
2023-04-29T10:06:36.000Z,-50
2023-04-29T10:07:36.000Z,-54
2023-04-29T10:08:36.000Z,-49
2023-04-29T10:09:36.000Z,-49
2023-04-29T10:10:36.000Z,-50
2023-04-29T10:11:36.000Z,-60
2023-04-29T10:12:36.000Z,-59
2023-04-29T10:13:36.000Z,-52
2023-04-29T10:14:36.000Z,-58
2023-04-29T10:15:36.000Z,-57
2023-04-29T10:16:36.000Z,-51
2023-04-29T10:17:37.000Z,-51
2023-04-29T10:18:37.000Z,-55
2023-04-29T10:19:37.000Z,-51
2023-04-29T10:20:37.000Z,-51
2023-04-29T10:21:37.000Z,-50
2023-04-29T10:22:37.000Z,-51
2023-04-29T10:23:37.000Z,-51
2023-04-29T10:24:37.000Z,-49
2023-04-29T10:25:37.000Z,-52
2023-04-29T10:26:37.000Z,-55
2023-04-29T10:27:37.000Z,-51
2023-04-29T10:28:37.000Z,-49
2023-04-29T10:29:37.000Z,-51
2023-04-29T10:30:38.000Z,-49
2023-04-29T10:31:38.000Z,-49
2023-04-29T10:32:38.000Z,-52
2023-04-29T10:33:38.000Z,-59
2023-04-29T10:34:38.000Z,-51
2023-04-29T10:35:38.000Z,-49
2023-04-29T10:36:38.000Z,-50
2023-04-29T10:37:38.000Z,-51
2023-04-29T10:38:38.000Z,-51
2023-04-29T10:39:38.000Z,-51
2023-04-29T10:40:38.000Z,-50
2023-04-29T10:41:38.000Z,-49
2023-04-29T10:42:39.000Z,-53
2023-04-29T10:43:39.000Z,-49
2023-04-29T10:44:39.000Z,-49
2023-04-29T10:45:39.000Z,-51
2023-04-29T10:46:39.000Z,-50
2023-04-29T10:47:39.000Z,-50
2023-04-29T10:48:39.000Z,-51
2023-04-29T10:49:39.000Z,-51
2023-04-29T10:50:39.000Z,-50
2023-04-29T10:51:39.000Z,-49
2023-04-29T10:52:39.000Z,-51
2023-04-29T10:53:39.000Z,-50
2023-04-29T10:54:39.000Z,-49
2023-04-29T10:55:39.000Z,-49
2023-04-29T10:56:40.000Z,-50
2023-04-29T10:57:40.000Z,-69
2023-04-29T10:58:40.000Z,-70
2023-04-29T10:59:40.000Z,-72
2023-04-29T11:00:40.000Z,-71
2023-04-29T11:01:40.000Z,-71
2023-04-29T11:02:40.000Z,-71
2023-04-29T11:03:40.000Z,-71
2023-04-29T11:04:40.000Z,-71
2023-04-29T11:05:40.000Z,-71
2023-04-29T11:06:40.000Z,-73
2023-04-29T11:07:40.000Z,-75
2023-04-29T11:08:41.000Z,-73
2023-04-29T11:09:41.000Z,-71
2023-04-29T11:10:41.000Z,-71
2023-04-29T11:11:41.000Z,-74
2023-04-29T11:12:41.000Z,-71
2023-04-29T11:13:41.000Z,-73
2023-04-29T11:14:41.000Z,-74
2023-04-29T11:15:41.000Z,-75
2023-04-29T11:16:41.000Z,-70
2023-04-29T11:17:41.000Z,-72
2023-04-29T11:18:41.000Z,-73
2023-04-29T11:19:41.000Z,-73
2023-04-29T11:20:41.000Z,-71
2023-04-29T11:21:42.000Z,-72
2023-04-29T11:22:42.000Z,-72
2023-04-29T11:23:42.000Z,-75
2023-04-29T11:24:42.000Z,-71
2023-04-29T11:25:42.000Z,-72
2023-04-29T11:26:42.000Z,-71
2023-04-29T11:27:42.000Z,-70
2023-04-29T11:28:42.000Z,-72
2023-04-29T11:29:42.000Z,-70
2023-04-29T11:30:42.000Z,-71
2023-04-29T11:31:42.000Z,-71
2023-04-29T11:32:43.000Z,-70
2023-04-29T11:33:43.000Z,-72
2023-04-29T11:34:43.000Z,-74
2023-04-29T11:35:43.000Z,-74
2023-04-29T11:36:43.000Z,-71
2023-04-29T11:37:43.000Z,-69
2023-04-29T11:38:43.000Z,-69
2023-04-29T11:39:43.000Z,-73
2023-04-29T11:40:43.000Z,-73
2023-04-29T11:41:43.000Z,-70
2023-04-29T11:42:43.000Z,-69
2023-04-29T11:43:43.000Z,-70
2023-04-29T11:44:43.000Z,-71
2023-04-29T11:45:44.000Z,-72
2023-04-29T11:46:44.000Z,-69
2023-04-29T11:47:44.000Z,-71
2023-04-29T11:48:44.000Z,-70
2023-04-29T11:49:44.000Z,-69
2023-04-29T11:50:44.000Z,-70
2023-04-29T11:51:44.000Z,-70
2023-04-29T11:52:44.000Z,-70
2023-04-29T11:53:44.000Z,-70
2023-04-29T11:54:44.000Z,-72
2023-04-29T11:55:44.000Z,-70
2023-04-29T11:56:44.000Z,-69
2023-04-29T11:57:45.000Z,-70
2023-04-29T11:58:45.000Z,-71
2023-04-29T11:59:45.000Z,-69
2023-04-29T12:00:45.000Z,-70
2023-04-29T12:01:45.000Z,-72
2023-04-29T12:02:45.000Z,-71
2023-04-29T12:03:45.000Z,-69
2023-04-29T12:04:45.000Z,-69
2023-04-29T12:05:45.000Z,-69
2023-04-29T12:06:45.000Z,-70
2023-04-29T12:07:45.000Z,-69
2023-04-29T12:08:46.000Z,-70
2023-04-29T12:09:46.000Z,-68
2023-04-29T12:10:46.000Z,-70
2023-04-29T12:11:46.000Z,-71
2023-04-29T12:12:46.000Z,-70
2023-04-29T12:13:46.000Z,-70
2023-04-29T12:14:46.000Z,-67
2023-04-29T12:15:46.000Z,-69
2023-04-29T12:16:46.000Z,-73
2023-04-29T12:17:46.000Z,-71
2023-04-29T12:18:46.000Z,-73
2023-04-29T12:19:46.000Z,-70
2023-04-29T12:20:46.000Z,-72
2023-04-29T12:21:47.000Z,-72
2023-04-29T12:22:47.000Z,-70
2023-04-29T12:23:47.000Z,-74
2023-04-29T12:24:47.000Z,-73
2023-04-29T12:25:47.000Z,-71
2023-04-29T12:26:47.000Z,-72
2023-04-29T12:27:47.000Z,-71
2023-04-29T12:28:47.000Z,-73
2023-04-29T12:29:47.000Z,-70
2023-04-29T12:30:47.000Z,-74
2023-04-29T12:31:47.000Z,-73
2023-04-29T12:32:47.000Z,-70
2023-04-29T12:33:48.000Z,-72
2023-04-29T12:34:48.000Z,-70
2023-04-29T12:35:48.000Z,-70
2023-04-29T12:36:48.000Z,-70
2023-04-29T12:37:48.000Z,-68
2023-04-29T12:38:48.000Z,-68
2023-04-29T12:39:48.000Z,-69
2023-04-29T12:40:48.000Z,-69
2023-04-29T12:41:48.000Z,-68
2023-04-29T12:42:48.000Z,-68
2023-04-29T12:43:48.000Z,-69
2023-04-29T12:44:48.000Z,-69
2023-04-29T12:45:49.000Z,-71
2023-04-29T12:46:49.000Z,-70
2023-04-29T12:47:49.000Z,-70
2023-04-29T12:48:49.000Z,-69
2023-04-29T12:49:49.000Z,-69
2023-04-29T12:50:49.000Z,-70
2023-04-29T12:51:49.000Z,-69
2023-04-29T12:52:49.000Z,-69
2023-04-29T12:53:49.000Z,-69
2023-04-29T12:54:49.000Z,-67
2023-04-29T12:55:49.000Z,-69
2023-04-29T12:56:49.000Z,-69
2023-04-29T12:57:50.000Z,-69
2023-04-29T12:58:50.000Z,-68
2023-04-29T12:59:50.000Z,-70
2023-04-29T13:00:50.000Z,-71
2023-04-29T13:01:50.000Z,-70
2023-04-29T13:02:50.000Z,-70
2023-04-29T13:03:50.000Z,-67
2023-04-29T13:04:50.000Z,-68
2023-04-29T13:05:50.000Z,-70
2023-04-29T13:06:50.000Z,-70
2023-04-29T13:07:50.000Z,-68
2023-04-29T13:08:50.000Z,-72
2023-04-29T13:09:50.000Z,-71
2023-04-29T13:10:51.000Z,-70
2023-04-29T13:11:51.000Z,-69
2023-04-29T13:12:51.000Z,-70
2023-04-29T13:13:51.000Z,-69
2023-04-29T13:14:51.000Z,-70
2023-04-29T13:15:51.000Z,-70
2023-04-29T13:16:51.000Z,-69
2023-04-29T13:17:51.000Z,-69
2023-04-29T13:18:51.000Z,-70
2023-04-29T13:19:51.000Z,-70
2023-04-29T13:20:51.000Z,-69
2023-04-29T13:21:51.000Z,-67
2023-04-29T13:22:51.000Z,-67
2023-04-29T13:23:52.000Z,-68
2023-04-29T13:24:52.000Z,-68
2023-04-29T13:25:52.000Z,-69
2023-04-29T13:26:52.000Z,-70
2023-04-29T13:27:52.000Z,-69
2023-04-29T13:28:52.000Z,-69
2023-04-29T13:29:52.000Z,-68
2023-04-29T13:30:52.000Z,-68
2023-04-29T13:31:52.000Z,-69
2023-04-29T13:32:52.000Z,-70
2023-04-29T13:33:52.000Z,-71
2023-04-29T13:34:52.000Z,-70
2023-04-29T13:35:52.000Z,-70
2023-04-29T13:36:53.000Z,-71
2023-04-29T13:37:53.000Z,-70
2023-04-29T13:38:53.000Z,-69
2023-04-29T13:39:53.000Z,-69
2023-04-29T13:40:53.000Z,-70
2023-04-29T13:41:53.000Z,-70
2023-04-29T13:42:53.000Z,-67
2023-04-29T13:43:53.000Z,-71
2023-04-29T13:44:53.000Z,-68
2023-04-29T13:45:53.000Z,-69
2023-04-29T13:46:53.000Z,-67
2023-04-29T13:47:53.000Z,-68